Terminal Aerodrome Forecast
Issued by NWS Twin Cities, MN

Home | Current Version | Previous Version | Text Only | Print | Product List | Glossary Off
Versions: 1 2 3 4 5 6 7 8 9 10 11 12 13

000
FTUS43 KMPX 152334
TAFEAU
TAF
KEAU 152334Z 1600/1624 13008KT P6SM SCT120 BKN250
     FM161200 15004KT P6SM SCT060 BKN100
     FM162200 26007KT P6SM BKN060=

USA.gov is the U.S. government's official web portal to all federal, state and local government web resources and services.